Marion, Montana
Current Conditions -  °F | °C
As of 4:55 PM on Friday 31 Oct 2014 (Local Time) from KGPI Reporting Station
Broken Clouds Broken Clouds  
Wind Chill: 50°   Ceiling: 11000
Heat Index: 50°   Visibility: 10mi
Dew Point: 43°   Wind: 3mph
Humidity: 77%   Direction: 180°S
Pressure: 29.75"   Gusts: NA
Location:  48.11°N, 114.66°W
Report Text: KGPI 312255Z 18003KT 10SM BKN110 10/06 A2975 RMK AO2 SLP088 T01000061
Loading
Personal Weather Stations






























Interactive Weather Map
Tropical Storm Tracking
New forecast layout! Learn more

10-Day Weather Forecast

Advertisements
Track Severe Weather on mobile